createdAt,value
2022-08-17T00:00:42.683Z,18.10
2022-08-17T00:03:04.701Z,18.10
2022-08-17T00:05:37.282Z,18.00
2022-08-17T00:08:05.650Z,17.90
2022-08-17T00:10:33.747Z,17.90
2022-08-17T00:13:05.829Z,17.90
2022-08-17T00:15:36.413Z,17.90
2022-08-17T00:18:04.441Z,17.90
2022-08-17T00:20:54.093Z,17.90
2022-08-17T00:23:26.305Z,17.80
2022-08-17T00:25:54.460Z,17.80
2022-08-17T00:28:22.600Z,17.80
2022-08-17T00:30:53.545Z,17.80
2022-08-17T00:33:26.488Z,17.70
2022-08-17T00:35:54.663Z,17.70
2022-08-17T00:38:23.091Z,17.80
2022-08-17T00:40:51.787Z,17.80
2022-08-17T00:43:29.254Z,17.70
2022-08-17T00:45:57.733Z,17.60
2022-08-17T00:48:28.845Z,17.50
2022-08-17T00:51:02.117Z,17.50
2022-08-17T00:53:31.230Z,17.50
2022-08-17T00:56:00.841Z,17.50
2022-08-17T00:58:35.759Z,17.40
2022-08-17T01:01:04.827Z,17.20
2022-08-17T01:03:33.399Z,17.20
2022-08-17T01:06:02.885Z,17.20
2022-08-17T01:08:32.123Z,17.20
2022-08-17T01:11:04.377Z,17.20
2022-08-17T01:13:40.368Z,17.30
2022-08-17T01:16:17.934Z,17.40
2022-08-17T01:18:47.310Z,17.20
2022-08-17T01:21:24.516Z,17.10
2022-08-17T01:23:52.749Z,17.00
2022-08-17T01:26:20.878Z,17.10
2022-08-17T01:28:54.203Z,17.00
2022-08-17T01:31:25.599Z,17.00
2022-08-17T01:33:53.797Z,17.10
2022-08-17T01:36:21.843Z,17.00
2022-08-17T01:38:50.344Z,16.90
2022-08-17T01:41:19.239Z,16.90
2022-08-17T01:43:52.494Z,16.90
2022-08-17T01:46:22.764Z,16.90
2022-08-17T01:48:51.682Z,16.80
2022-08-17T01:51:22.400Z,16.90
2022-08-17T01:53:57.822Z,16.80
2022-08-17T01:56:26.891Z,16.90
2022-08-17T01:58:54.820Z,16.70
2022-08-17T02:01:24.960Z,16.80
2022-08-17T02:04:00.618Z,16.80
2022-08-17T02:06:31.575Z,16.80
2022-08-17T02:09:16.717Z,16.80
2022-08-17T02:11:46.282Z,16.70
2022-08-17T02:14:14.604Z,16.70
2022-08-17T02:16:42.798Z,16.60
2022-08-17T02:19:13.246Z,16.60
2022-08-17T02:21:42.064Z,16.80
2022-08-17T02:24:12.427Z,16.70
2022-08-17T02:26:40.460Z,16.60
2022-08-17T02:29:08.472Z,16.70
2022-08-17T02:31:36.458Z,16.70
2022-08-17T02:34:05.435Z,16.70
2022-08-17T02:36:34.498Z,16.60
2022-08-17T02:39:03.312Z,16.60
2022-08-17T02:41:31.598Z,16.60
2022-08-17T02:43:59.697Z,16.60
2022-08-17T02:46:28.592Z,16.60
2022-08-17T02:48:57.305Z,16.70
2022-08-17T02:51:25.882Z,16.70
2022-08-17T02:54:35.616Z,16.70
2022-08-17T02:56:41.984Z,16.80
2022-08-17T02:59:10.022Z,16.70
2022-08-17T03:01:38.212Z,16.70
2022-08-17T03:04:06.749Z,16.70
2022-08-17T03:06:34.720Z,16.70
2022-08-17T03:09:02.809Z,16.60
2022-08-17T03:11:30.953Z,16.60
2022-08-17T03:13:59.583Z,16.70
2022-08-17T03:16:27.733Z,16.70
2022-08-17T03:18:55.732Z,16.80
2022-08-17T03:21:23.854Z,16.70
2022-08-17T03:23:54.417Z,16.80
2022-08-17T03:26:22.786Z,16.80
2022-08-17T03:28:50.809Z,16.80
2022-08-17T03:31:18.869Z,16.90
2022-08-17T03:33:46.873Z,16.90
2022-08-17T03:36:15.095Z,16.90
2022-08-17T03:38:43.120Z,16.90
2022-08-17T03:41:14.250Z,16.90
2022-08-17T03:43:42.214Z,16.80
2022-08-17T03:46:34.167Z,16.80
2022-08-17T03:49:25.827Z,16.80
2022-08-17T03:52:13.469Z,16.80
2022-08-17T03:55:00.983Z,16.80
2022-08-17T03:57:29.471Z,16.70
2022-08-17T03:59:57.478Z,16.70
2022-08-17T04:02:27.427Z,16.70
2022-08-17T04:04:55.493Z,16.70
2022-08-17T04:07:25.114Z,16.80
2022-08-17T04:09:53.220Z,16.80
2022-08-17T04:12:22.817Z,16.80
2022-08-17T04:14:53.656Z,16.80
2022-08-17T04:17:29.192Z,16.80
2022-08-17T04:19:57.428Z,16.90
2022-08-17T04:22:32.137Z,16.90
2022-08-17T04:25:04.493Z,16.90
2022-08-17T04:27:32.629Z,16.90
2022-08-17T04:30:00.794Z,16.90
2022-08-17T04:33:05.366Z,16.90
2022-08-17T04:35:22.186Z,17.00
2022-08-17T04:37:50.829Z,17.00
2022-08-17T04:40:38.023Z,17.10
2022-08-17T04:43:13.703Z,17.10
2022-08-17T04:45:54.952Z,17.20
2022-08-17T04:48:29.856Z,17.20
2022-08-17T04:51:07.577Z,17.20
2022-08-17T04:53:36.129Z,17.20
2022-08-17T04:56:04.359Z,17.30
2022-08-17T04:58:32.581Z,17.30
2022-08-17T05:01:01.737Z,17.40
2022-08-17T05:03:29.983Z,17.40
2022-08-17T05:05:58.059Z,17.60
2022-08-17T05:08:26.398Z,17.60
2022-08-17T05:10:54.688Z,17.70
2022-08-17T05:13:24.029Z,17.90
2022-08-17T05:15:56.784Z,18.00
2022-08-17T05:18:25.394Z,18.20
2022-08-17T05:20:53.674Z,18.30
2022-08-17T05:23:22.848Z,18.50
2022-08-17T05:25:52.699Z,18.70
2022-08-17T05:28:26.565Z,18.80
2022-08-17T05:30:56.972Z,18.90
2022-08-17T05:33:28.961Z,19.20
2022-08-17T05:35:58.557Z,19.40
2022-08-17T05:38:28.029Z,19.60
2022-08-17T05:40:56.530Z,19.70
2022-08-17T05:43:26.165Z,19.80
2022-08-17T05:46:00.397Z,20.00
2022-08-17T05:48:35.569Z,20.10
2022-08-17T05:51:21.415Z,20.30
2022-08-17T05:53:55.394Z,20.40
2022-08-17T05:56:30.411Z,20.50
2022-08-17T05:59:05.542Z,20.60
2022-08-17T06:01:48.073Z,20.70
2022-08-17T08:38:38.277Z,36.00
2022-08-17T08:41:20.326Z,37.50
2022-08-17T08:44:07.015Z,37.60
2022-08-17T08:46:47.416Z,38.00
2022-08-17T08:50:01.969Z,38.00
2022-08-17T08:52:27.906Z,38.50
2022-08-17T08:55:17.071Z,38.70
2022-08-17T08:57:49.115Z,39.00
2022-08-17T09:00:19.420Z,39.00
2022-08-17T09:03:00.649Z,39.00
2022-08-17T09:05:31.649Z,39.50
2022-08-17T09:08:02.648Z,39.70
2022-08-17T09:10:36.958Z,39.20
2022-08-17T09:13:10.343Z,39.40
2022-08-17T09:15:42.966Z,39.30
2022-08-17T09:19:02.508Z,39.70
2022-08-17T09:21:06.372Z,40.20
2022-08-17T09:23:49.846Z,40.50
2022-08-17T09:26:23.189Z,40.50
2022-08-17T09:28:52.900Z,40.80
2022-08-17T09:31:22.764Z,41.30
2022-08-17T09:33:51.865Z,41.40
2022-08-17T09:36:26.286Z,41.50
2022-08-17T09:39:13.878Z,42.00
2022-08-17T09:41:48.858Z,42.40
2022-08-17T09:44:23.205Z,42.30
2022-08-17T09:46:56.179Z,42.10
2022-08-17T09:49:41.086Z,42.10
2022-08-17T09:52:15.308Z,42.30
2022-08-17T09:54:46.510Z,42.40
2022-08-17T09:57:30.191Z,42.10
2022-08-17T10:00:16.819Z,42.60
2022-08-17T10:02:57.264Z,42.90
2022-08-17T10:05:31.471Z,43.40
2022-08-17T10:08:08.921Z,43.60
2022-08-17T10:10:36.972Z,43.50
2022-08-17T10:13:18.322Z,43.80
2022-08-17T10:16:12.740Z,43.50
2022-08-17T10:18:56.672Z,43.60
2022-08-17T10:21:44.713Z,43.90
2022-08-17T10:24:31.243Z,42.00
2022-08-17T10:27:01.181Z,42.20
2022-08-17T10:29:29.130Z,43.10
2022-08-17T10:32:01.297Z,43.40
2022-08-17T10:34:41.928Z,42.90
2022-08-17T10:37:22.379Z,43.40
2022-08-17T10:39:59.699Z,43.50
2022-08-17T10:42:30.311Z,43.80
2022-08-17T10:45:05.292Z,44.10
2022-08-17T10:48:04.673Z,44.70
2022-08-17T10:50:53.361Z,44.60
2022-08-17T10:53:33.573Z,44.00
2022-08-17T10:56:22.083Z,44.40
2022-08-17T10:58:55.112Z,44.70
2022-08-17T11:01:43.784Z,44.70
2022-08-17T11:04:38.136Z,44.70
2022-08-17T11:07:32.547Z,44.70
2022-08-17T11:10:14.255Z,44.70
2022-08-17T11:12:54.720Z,44.90
2022-08-17T11:15:22.784Z,44.70
2022-08-17T11:17:52.372Z,43.60
2022-08-17T11:20:32.714Z,42.40
2022-08-17T11:23:19.982Z,43.10
2022-08-17T11:25:55.991Z,43.80
2022-08-17T11:28:26.033Z,44.30
2022-08-17T11:30:56.799Z,44.60
2022-08-17T11:33:38.218Z,44.70
2022-08-17T11:36:10.584Z,44.80
2022-08-17T11:38:46.583Z,45.00
2022-08-17T11:41:27.781Z,44.90
2022-08-17T11:43:55.890Z,45.00
2022-08-17T11:46:51.107Z,45.30
2022-08-17T11:49:55.943Z,45.30
2022-08-17T11:52:45.983Z,42.90
2022-08-17T11:55:36.635Z,41.60
2022-08-17T11:58:26.648Z,42.00
2022-08-17T12:01:03.682Z,42.80
2022-08-17T12:03:34.228Z,43.60
2022-08-17T12:06:05.291Z,44.30
2022-08-17T12:08:34.248Z,44.40
2022-08-17T12:11:07.648Z,44.80
2022-08-17T12:13:43.802Z,45.00
2022-08-17T12:16:17.039Z,45.30
2022-08-17T12:18:54.255Z,45.00
2022-08-17T12:21:22.532Z,45.00
2022-08-17T12:23:53.440Z,45.00
2022-08-17T12:26:32.968Z,45.30
2022-08-17T12:29:18.427Z,45.50
2022-08-17T12:32:02.554Z,45.50
2022-08-17T12:34:36.992Z,45.30
2022-08-17T12:37:15.583Z,43.60
2022-08-17T12:39:55.278Z,42.10
2022-08-17T12:42:29.707Z,41.00
2022-08-17T12:45:00.456Z,42.20
2022-08-17T12:47:30.371Z,43.10
2022-08-17T12:50:28.764Z,44.00
2022-08-17T12:53:01.715Z,44.00
2022-08-17T12:55:36.497Z,44.30
2022-08-17T12:58:05.088Z,44.20
2022-08-17T13:00:35.899Z,44.40
2022-08-17T13:03:08.221Z,44.00
2022-08-17T13:05:39.773Z,44.10
2022-08-17T13:08:18.914Z,44.10
2022-08-17T13:10:59.195Z,44.10
2022-08-17T13:13:28.629Z,43.90
2022-08-17T13:15:56.742Z,43.70
2022-08-17T13:18:36.828Z,43.80
2022-08-17T13:21:05.827Z,43.80
2022-08-17T13:23:33.977Z,43.50
2022-08-17T13:26:05.242Z,43.40
2022-08-17T13:28:36.150Z,43.40
2022-08-17T13:31:33.291Z,43.00
2022-08-17T13:34:16.543Z,43.10
2022-08-17T13:36:47.939Z,43.20
2022-08-17T13:39:19.200Z,43.10
2022-08-17T13:41:48.299Z,43.10
2022-08-17T13:44:39.708Z,43.50
2022-08-17T13:47:18.879Z,43.60
2022-08-17T13:49:49.190Z,43.60
2022-08-17T13:52:34.725Z,43.40
2022-08-17T13:55:05.256Z,43.30
2022-08-17T13:57:33.510Z,43.10
2022-08-17T14:00:16.378Z,43.20
2022-08-17T14:02:44.490Z,42.70
2022-08-17T14:05:12.441Z,40.90
2022-08-17T14:07:41.156Z,40.00
2022-08-17T14:10:14.140Z,39.10
2022-08-17T14:12:44.799Z,38.80
2022-08-17T14:15:14.355Z,39.60
2022-08-17T14:17:42.291Z,40.30
2022-08-17T14:20:12.124Z,40.40
2022-08-17T14:22:43.611Z,40.90
2022-08-17T14:25:12.630Z,41.20
2022-08-17T14:27:52.362Z,41.10
2022-08-17T14:30:22.860Z,41.20
2022-08-17T14:32:52.227Z,40.90
2022-08-17T14:35:22.437Z,40.70
2022-08-17T14:37:51.429Z,40.80
2022-08-17T14:40:21.158Z,40.70
2022-08-17T14:42:50.207Z,40.90
2022-08-17T14:45:29.607Z,40.90
2022-08-17T14:48:07.936Z,40.60
2022-08-17T14:50:38.661Z,40.60
2022-08-17T14:53:11.468Z,40.30
2022-08-17T14:55:42.377Z,39.90
2022-08-17T14:58:10.668Z,40.00
2022-08-17T15:00:38.868Z,39.90
2022-08-17T15:03:06.857Z,39.80
2022-08-17T15:05:36.895Z,39.40
2022-08-17T15:08:07.938Z,39.30
2022-08-17T15:10:36.277Z,39.10
2022-08-17T15:13:04.257Z,39.00
2022-08-17T15:15:32.273Z,38.80
2022-08-17T15:18:00.677Z,38.80
2022-08-17T15:20:30.145Z,38.80
2022-08-17T15:22:59.506Z,38.70
2022-08-17T15:25:28.562Z,38.50
2022-08-17T15:27:56.893Z,38.30
2022-08-17T15:30:26.230Z,38.00
2022-08-17T15:32:55.570Z,37.90
2022-08-17T15:35:27.899Z,37.60
2022-08-17T15:38:06.274Z,37.60
2022-08-17T15:40:39.222Z,37.30
2022-08-17T15:43:11.931Z,37.20
2022-08-17T15:45:40.438Z,37.10
2022-08-17T15:48:08.432Z,37.00
2022-08-17T15:50:36.590Z,36.70
2022-08-17T15:53:05.231Z,36.50
2022-08-17T15:55:34.147Z,36.30
2022-08-17T15:58:02.368Z,36.10
2022-08-17T16:00:30.975Z,36.00
2022-08-17T16:03:20.362Z,35.80
2022-08-17T16:05:52.614Z,35.60
2022-08-17T16:08:21.488Z,35.50
2022-08-17T16:10:49.890Z,35.30
2022-08-17T16:13:18.736Z,35.10
2022-08-17T16:15:56.226Z,34.90
2022-08-17T16:18:26.814Z,34.80
2022-08-17T16:20:55.387Z,34.50
2022-08-17T16:23:23.939Z,34.20
2022-08-17T16:25:53.746Z,34.00
2022-08-17T16:28:36.061Z,33.90
2022-08-17T16:31:08.168Z,33.70
2022-08-17T16:33:39.915Z,33.30
2022-08-17T16:36:08.573Z,33.10
2022-08-17T16:38:37.356Z,32.80
2022-08-17T16:41:06.252Z,32.40
2022-08-17T16:43:34.960Z,32.10
2022-08-17T16:46:03.037Z,31.90
2022-08-17T16:48:32.088Z,31.60
2022-08-17T16:51:03.876Z,31.40
2022-08-17T16:53:32.767Z,31.30
2022-08-17T16:56:00.843Z,31.00
2022-08-17T16:58:28.790Z,30.80
2022-08-17T17:00:59.922Z,30.60
2022-08-17T17:03:30.565Z,30.30
2022-08-17T17:06:14.428Z,30.20
2022-08-17T17:09:08.437Z,30.00
2022-08-17T17:11:41.734Z,29.80
2022-08-17T17:14:11.994Z,29.60
2022-08-17T17:16:47.532Z,29.40
2022-08-17T17:19:27.715Z,29.20
2022-08-17T17:22:20.619Z,29.00
2022-08-17T17:24:50.280Z,28.90
2022-08-17T17:27:18.854Z,28.90
2022-08-17T17:30:04.143Z,28.70
2022-08-17T17:33:01.560Z,28.60
2022-08-17T17:35:59.591Z,28.40
2022-08-17T17:38:33.379Z,28.30
2022-08-17T17:41:05.926Z,28.00
2022-08-17T17:43:41.161Z,27.90
2022-08-17T17:46:29.775Z,27.70
2022-08-17T17:48:58.391Z,27.50
2022-08-17T17:52:06.859Z,27.40
2022-08-17T17:54:32.828Z,27.30
2022-08-17T17:57:21.973Z,27.20
2022-08-17T18:00:11.887Z,27.10
2022-08-17T18:02:51.227Z,26.90
2022-08-17T18:05:35.836Z,26.80
2022-08-17T18:08:13.024Z,26.70
2022-08-17T18:10:50.224Z,26.60
2022-08-17T18:13:26.600Z,26.50
2022-08-17T18:15:56.613Z,26.40
2022-08-17T18:18:38.090Z,26.30
2022-08-17T18:21:19.663Z,26.20
2022-08-17T18:24:08.058Z,26.10
2022-08-17T18:26:41.918Z,26.00
2022-08-17T18:29:28.558Z,25.90
2022-08-17T18:32:15.462Z,25.70
2022-08-17T18:34:47.729Z,25.60
2022-08-17T18:37:34.040Z,25.40
2022-08-17T18:40:17.108Z,25.50
2022-08-17T18:42:51.055Z,25.40
2022-08-17T18:45:42.782Z,25.30
2022-08-17T18:48:19.675Z,25.10
2022-08-17T18:50:48.299Z,25.00
2022-08-17T18:53:33.151Z,24.90
2022-08-17T18:56:40.710Z,24.80
2022-08-17T18:59:20.770Z,24.80
2022-08-17T19:01:52.667Z,24.70
2022-08-17T19:04:37.630Z,24.60
2022-08-17T19:07:11.732Z,24.60
2022-08-17T19:09:48.095Z,24.50
2022-08-17T19:12:34.101Z,24.40
2022-08-17T19:15:03.003Z,24.40
2022-08-17T19:17:35.796Z,24.40
2022-08-17T19:20:04.080Z,24.40
2022-08-17T19:23:12.510Z,24.40
2022-08-17T19:25:46.771Z,24.40
2022-08-17T19:28:22.480Z,24.30
2022-08-17T19:30:55.363Z,24.40
2022-08-17T19:33:23.779Z,24.30
2022-08-17T19:35:54.562Z,24.30
2022-08-17T19:38:27.844Z,24.30
2022-08-17T19:41:04.009Z,24.30
2022-08-17T19:43:51.586Z,24.30
2022-08-17T19:46:19.535Z,24.20
2022-08-17T19:48:50.129Z,24.10
2022-08-17T19:51:18.191Z,24.10
2022-08-17T19:54:05.369Z,24.10
2022-08-17T19:56:33.812Z,24.10
2022-08-17T19:59:07.790Z,24.00
2022-08-17T20:01:39.036Z,23.90
2022-08-17T20:04:32.451Z,23.90
2022-08-17T20:07:03.791Z,23.90
2022-08-17T20:09:39.863Z,23.80
2022-08-17T20:12:11.057Z,23.70
2022-08-17T20:14:39.026Z,23.70
2022-08-17T20:17:20.157Z,23.60
2022-08-17T20:20:19.866Z,23.50
2022-08-17T20:22:52.381Z,23.40
2022-08-17T20:25:30.413Z,23.40
2022-08-17T20:28:05.958Z,23.30
2022-08-17T20:30:38.018Z,23.30
2022-08-17T20:33:07.827Z,23.30
2022-08-17T20:35:40.790Z,23.30
2022-08-17T20:38:14.886Z,23.20
2022-08-17T20:40:55.007Z,23.20
2022-08-17T20:43:52.406Z,23.20
2022-08-17T20:46:24.472Z,23.10
2022-08-17T20:48:54.191Z,23.10
2022-08-17T20:51:26.414Z,23.00
2022-08-17T20:53:54.383Z,23.10
2022-08-17T20:56:41.086Z,23.00
2022-08-17T20:59:10.034Z,22.90
2022-08-17T21:01:40.141Z,22.90
2022-08-17T21:04:09.187Z,22.90
2022-08-17T21:06:57.245Z,22.80
2022-08-17T21:09:30.192Z,22.80
2022-08-17T21:12:05.048Z,22.80
2022-08-17T21:14:42.445Z,22.80
2022-08-17T21:17:29.924Z,22.70
2022-08-17T21:20:10.761Z,22.70
2022-08-17T21:22:53.484Z,22.60
2022-08-17T21:25:40.156Z,22.60
2022-08-17T21:29:00.265Z,22.50
2022-08-17T21:31:36.364Z,22.30
2022-08-17T21:34:16.983Z,22.40
2022-08-17T21:36:46.395Z,22.40
2022-08-17T21:39:21.370Z,22.30
2022-08-17T21:41:56.671Z,22.30
2022-08-17T21:44:32.761Z,22.20
2022-08-17T21:47:20.258Z,22.20
2022-08-17T21:49:48.359Z,22.10
2022-08-17T21:52:18.933Z,22.00
2022-08-17T21:54:52.398Z,22.00
2022-08-17T21:57:22.665Z,21.90
2022-08-17T21:59:52.552Z,21.70
2022-08-17T22:02:22.849Z,21.70
2022-08-17T22:05:01.912Z,21.60
2022-08-17T22:07:39.315Z,21.60
2022-08-17T22:10:26.527Z,21.60
2022-08-17T22:13:06.632Z,21.50
2022-08-17T22:15:49.600Z,21.40
2022-08-17T22:18:20.665Z,21.30
2022-08-17T22:20:53.854Z,21.30
2022-08-17T22:23:45.499Z,21.30
2022-08-17T22:26:14.953Z,21.20
2022-08-17T22:28:50.671Z,21.20
2022-08-17T22:31:21.059Z,21.20
2022-08-17T22:33:50.864Z,21.10
2022-08-17T22:36:26.926Z,21.10
2022-08-17T22:39:17.457Z,21.00
2022-08-17T22:41:51.012Z,20.80
2022-08-17T22:44:30.404Z,20.80
2022-08-17T22:47:23.821Z,20.80
2022-08-17T22:49:53.314Z,20.80
2022-08-17T22:52:29.188Z,20.70
2022-08-17T22:55:33.318Z,20.70
2022-08-17T22:58:19.793Z,20.60
2022-08-17T23:00:48.766Z,20.50
2022-08-17T23:03:16.747Z,20.50
2022-08-17T23:05:49.633Z,20.50
2022-08-17T23:08:21.509Z,20.40
2022-08-17T23:10:49.853Z,20.40
2022-08-17T23:13:18.468Z,20.20
2022-08-17T23:15:48.547Z,20.30
2022-08-17T23:18:17.892Z,20.20
2022-08-17T23:20:46.469Z,20.10
2022-08-17T23:23:15.447Z,20.10
2022-08-17T23:25:46.912Z,20.10
2022-08-17T23:38:38.204Z,19.80
2022-08-17T23:41:12.241Z,19.70
2022-08-17T23:43:41.340Z,19.70
2022-08-17T23:46:09.312Z,19.80
2022-08-17T23:48:38.498Z,19.70
2022-08-17T23:51:09.073Z,19.80
2022-08-17T23:53:38.150Z,19.70
2022-08-17T23:56:10.390Z,19.70
2022-08-17T23:58:40.406Z,19.60
